Time;durP1;ratioP1;P1;durP2;ratioP2;P2;SDS_P1;SDS_P2;PMS_P1;PMS_P2;Temp;Humidity;BMP_temperature;BMP_pressure;BME280_temperature;BME280_humidity;BME280_pressure;Samples;Min_cycle;Max_cycle;Signal;HPM_P1;HPM_P2
2022/11/19 00:00:51;;;;;;;11.97;9.50;;;-3.10;1.00;;;;;;5013309;28;20269;-79
2022/11/19 00:03:18;;;;;;;13.30;9.10;;;-3.10;1.00;;;;;;5015640;28;20188;-78
2022/11/19 00:05:46;;;;;;;12.57;9.67;;;-3.10;1.00;;;;;;5013887;28;20195;-77
2022/11/19 00:08:15;;;;;;;11.73;9.07;;;-3.20;1.00;;;;;;5015444;28;20180;-79
2022/11/19 00:10:41;;;;;;;14.20;10.30;;;-3.30;1.00;;;;;;5015266;28;20179;-77
2022/11/19 00:13:07;;;;;;;14.07;9.97;;;-2.90;1.00;;;;;;5017997;28;20187;-78
2022/11/19 00:15:34;;;;;;;13.67;10.43;;;-3.20;1.00;;;;;;5015833;28;20184;-79
2022/11/19 00:18:01;;;;;;;12.33;9.47;;;-3.30;1.00;;;;;;5015247;28;20715;-79
2022/11/19 00:20:28;;;;;;;12.00;9.17;;;-3.30;1.00;;;;;;5014077;28;20564;-78
2022/11/19 00:22:55;;;;;;;11.73;9.73;;;-3.30;1.00;;;;;;5016118;28;20187;-79
2022/11/19 00:25:22;;;;;;;13.17;9.63;;;-3.30;1.00;;;;;;5014423;28;20273;-79
2022/11/19 00:27:48;;;;;;;14.02;11.30;;;-3.30;1.00;;;;;;5014801;28;20501;-79
2022/11/19 00:30:14;;;;;;;13.13;10.83;;;-3.40;1.00;;;;;;5015253;28;20261;-79
2022/11/19 00:32:40;;;;;;;12.57;9.70;;;-3.40;1.00;;;;;;5014304;28;20187;-79
2022/11/19 00:35:06;;;;;;;14.73;10.23;;;-3.50;1.00;;;;;;5015488;28;20171;-79
2022/11/19 00:37:32;;;;;;;13.17;9.57;;;-3.50;1.00;;;;;;5015136;28;20238;-77
2022/11/19 00:39:57;;;;;;;11.33;9.20;;;-3.50;1.00;;;;;;5015308;28;20538;-77
2022/11/19 00:42:23;;;;;;;12.40;9.37;;;-3.40;1.00;;;;;;5013722;28;20630;-79
2022/11/19 00:44:49;;;;;;;12.13;9.67;;;-3.50;1.00;;;;;;5022783;28;20229;-79
2022/11/19 00:47:15;;;;;;;12.33;9.23;;;-3.50;1.00;;;;;;5015264;28;20200;-79
2022/11/19 00:49:41;;;;;;;11.63;9.47;;;-3.60;1.00;;;;;;5015102;28;20172;-79
2022/11/19 00:52:07;;;;;;;12.33;9.73;;;-3.60;1.00;;;;;;5015306;28;20192;-79
2022/11/19 00:54:32;;;;;;;13.10;9.27;;;-3.70;1.00;;;;;;5015076;28;20549;-79
2022/11/19 00:56:58;;;;;;;13.77;9.70;;;-3.60;1.00;;;;;;5014537;28;20210;-78
2022/11/19 00:59:24;;;;;;;11.47;8.63;;;-3.70;1.00;;;;;;5013377;28;20237;-78
2022/11/19 01:01:49;;;;;;;12.77;9.47;;;-3.70;1.00;;;;;;5014770;28;20930;-79
2022/11/19 01:04:16;;;;;;;11.67;8.60;;;-3.70;4.90;;;;;;5013634;28;20180;-79
2022/11/19 01:06:41;;;;;;;11.50;9.00;;;-3.60;27.40;;;;;;5013891;28;20206;-79
2022/11/19 01:09:07;;;;;;;11.77;8.47;;;;;;;;;;5015065;28;20208;-78
2022/11/19 01:11:35;;;;;;;11.47;8.60;;;-3.70;1.00;;;;;;5014910;28;20187;-79
2022/11/19 01:14:02;;;;;;;12.10;8.70;;;-3.70;1.00;;;;;;5013803;28;20223;-78
2022/11/19 01:16:34;;;;;;;11.33;8.33;;;-3.60;1.00;;;;;;5027699;28;20499;-79
2022/11/19 01:19:00;;;;;;;10.33;7.73;;;-3.70;1.00;;;;;;5034805;28;20175;-79
2022/11/19 01:21:28;;;;;;;9.20;7.63;;;-3.70;1.00;;;;;;5033202;28;20203;-78
2022/11/19 01:23:55;;;;;;;9.63;7.20;;;-3.80;1.00;;;;;;5034092;28;20301;-79
2022/11/19 01:26:21;;;;;;;12.03;7.83;;;-3.70;1.00;;;;;;5036152;28;20210;-77
2022/11/19 01:28:46;;;;;;;10.33;7.90;;;-3.70;1.00;;;;;;5038021;28;20546;-79
2022/11/19 01:31:21;;;;;;;8.93;7.13;;;-3.70;1.00;;;;;;5037709;28;20190;-79
2022/11/19 01:33:47;;;;;;;10.47;7.67;;;-3.70;1.00;;;;;;5037994;28;20229;-79
2022/11/19 01:36:16;;;;;;;9.23;7.30;;;-3.70;1.00;;;;;;5036544;28;20202;-78
2022/11/19 01:38:42;;;;;;;9.57;7.77;;;-3.80;1.00;;;;;;5038151;28;20266;-78
2022/11/19 01:41:08;;;;;;;9.47;7.17;;;-3.80;1.00;;;;;;5038091;28;20203;-79
2022/11/19 01:43:57;;;;;;;10.47;7.33;;;-3.80;1.00;;;;;;5035563;28;20179;-78
2022/11/19 01:46:25;;;;;;;9.40;7.17;;;-3.90;1.00;;;;;;5039174;28;20202;-79
2022/11/19 01:48:54;;;;;;;10.50;7.20;;;-3.90;1.00;;;;;;5036232;28;20186;-79
2022/11/19 01:51:33;;;;;;;9.47;7.20;;;-3.90;1.00;;;;;;5037500;28;20221;-78
2022/11/19 01:54:03;;;;;;;10.37;8.10;;;-4.00;1.00;;;;;;5037734;28;20201;-78
2022/11/19 01:56:30;;;;;;;11.57;8.43;;;-4.10;1.60;;;;;;5037053;28;20286;-79
2022/11/19 01:59:01;;;;;;;9.37;7.83;;;-4.10;26.30;;;;;;5037512;28;20183;-79
2022/11/19 02:01:29;;;;;;;10.80;8.20;;;-4.20;46.00;;;;;;5036015;28;20356;-78
2022/11/19 02:03:59;;;;;;;10.53;7.47;;;-4.20;79.00;;;;;;5037323;28;20646;-79
2022/11/19 02:06:27;;;;;;;10.87;8.23;;;-4.30;63.20;;;;;;5037216;28;20206;-79
2022/11/19 02:08:53;;;;;;;11.37;8.40;;;-4.40;81.70;;;;;;5037464;28;20436;-78
2022/11/19 02:11:24;;;;;;;13.20;7.70;;;-4.40;95.90;;;;;;5037373;28;20406;-79
2022/11/19 02:14:27;;;;;;;11.53;8.23;;;-4.40;99.90;;;;;;5037380;28;20187;-79
2022/11/19 02:17:08;;;;;;;11.10;8.17;;;-4.50;99.90;;;;;;5034540;28;20449;-79
2022/11/19 02:19:55;;;;;;;12.13;8.20;;;-4.60;99.90;;;;;;5037660;28;20174;-78
2022/11/19 02:22:43;;;;;;;12.17;8.33;;;-4.60;99.90;;;;;;5035945;28;20301;-79
2022/11/19 02:25:17;;;;;;;11.53;8.40;;;-4.60;99.90;;;;;;5037233;28;20521;-79
2022/11/19 02:28:21;;;;;;;12.90;8.90;;;-4.60;99.90;;;;;;5035041;28;20661;-79
2022/11/19 02:30:51;;;;;;;14.53;9.23;;;-4.60;99.90;;;;;;5035633;28;20162;-79
2022/11/19 02:33:24;;;;;;;14.90;9.10;;;-4.60;99.90;;;;;;5036601;28;20434;-79
2022/11/19 02:36:04;;;;;;;11.57;8.50;;;-4.40;99.90;;;;;;5035071;28;20160;-78
2022/11/19 02:38:34;;;;;;;13.20;9.50;;;;;;;;;;5036201;28;20547;-78
2022/11/19 02:41:34;;;;;;;12.93;8.60;;;-4.60;99.90;;;;;;5037206;28;20206;-79
2022/11/19 02:47:03;;;;;;;13.07;9.40;;;-4.80;99.90;;;;;;5036978;28;20253;-78
2022/11/19 02:49:32;;;;;;;13.03;8.60;;;-4.80;99.90;;;;;;5036787;28;20175;-79
2022/11/19 02:51:59;;;;;;;12.63;9.27;;;-4.80;99.90;;;;;;5036369;28;20179;-78
2022/11/19 02:54:26;;;;;;;13.80;9.37;;;-4.80;99.90;;;;;;5035420;28;20171;-80
2022/11/19 02:56:57;;;;;;;15.90;9.40;;;-4.80;99.90;;;;;;5035492;28;20199;-80
2022/11/19 03:05:22;;;;;;;14.53;9.83;;;-5.00;99.90;;;;;;5036175;28;20234;-77
2022/11/19 03:07:49;;;;;;;15.27;10.87;;;-4.90;99.90;;;;;;5034919;28;20199;-78
2022/11/19 03:10:18;;;;;;;14.20;9.60;;;-4.90;99.90;;;;;;5034750;28;20437;-79
2022/11/19 03:12:44;;;;;;;14.90;10.07;;;-5.00;99.90;;;;;;5036126;28;20215;-79
2022/11/19 03:18:19;;;;;;;15.37;10.67;;;-5.10;99.90;;;;;;5036595;28;20189;-79
2022/11/19 03:20:51;;;;;;;14.83;9.90;;;-5.10;99.90;;;;;;5035867;28;20214;-80
2022/11/19 03:23:39;;;;;;;13.10;9.50;;;-5.10;99.90;;;;;;5036702;28;20225;-78
2022/11/19 03:26:25;;;;;;;15.70;10.23;;;-5.00;99.90;;;;;;5035311;28;20194;-79
2022/11/19 03:28:54;;;;;;;15.40;10.17;;;-5.10;99.90;;;;;;5035365;28;20183;-79
2022/11/19 03:31:21;;;;;;;15.43;10.40;;;-5.10;99.90;;;;;;5035742;28;20174;-80
2022/11/19 03:33:51;;;;;;;15.63;10.53;;;-5.20;99.90;;;;;;5034748;28;20621;-79
2022/11/19 03:36:21;;;;;;;15.20;10.33;;;-5.20;99.90;;;;;;5035379;28;20616;-79
2022/11/19 03:38:57;;;;;;;16.07;10.27;;;-5.20;99.90;;;;;;5035446;28;20267;-79
2022/11/19 03:41:24;;;;;;;15.80;10.50;;;-5.30;99.90;;;;;;5035351;28;20499;-79
2022/11/19 03:44:00;;;;;;;17.00;10.87;;;-5.30;99.90;;;;;;5035127;28;20241;-80
2022/11/19 03:46:28;;;;;;;17.83;10.73;;;-5.40;99.90;;;;;;5035461;28;20202;-79
2022/11/19 03:48:55;;;;;;;15.10;10.93;;;-5.40;99.90;;;;;;5034707;28;20268;-80
2022/11/19 03:51:28;;;;;;;16.57;11.07;;;-5.40;99.90;;;;;;5035357;28;20804;-79
2022/11/19 03:53:54;;;;;;;16.07;11.03;;;-5.50;99.90;;;;;;5033531;28;20199;-79
2022/11/19 03:56:23;;;;;;;17.20;10.67;;;-5.50;99.90;;;;;;5033651;28;20336;-80
2022/11/19 03:58:49;;;;;;;17.47;11.50;;;-5.50;99.90;;;;;;5033556;28;20285;-79
2022/11/19 04:01:15;;;;;;;17.17;11.03;;;-5.50;99.90;;;;;;5034682;28;20301;-80
2022/11/19 04:04:34;;;;;;;16.93;10.83;;;-5.60;99.90;;;;;;5033546;28;20205;-79
2022/11/19 04:06:26;;;;;;;16.13;10.47;;;-5.60;99.90;;;;;;5034065;28;20738;-79
2022/11/19 04:08:51;;;;;;;15.80;11.20;;;-5.60;99.90;;;;;;5033158;28;20178;-79
2022/11/19 04:11:17;;;;;;;17.67;11.27;;;-5.60;99.90;;;;;;5035020;28;20205;-79
2022/11/19 04:13:42;;;;;;;17.27;11.47;;;-5.60;99.90;;;;;;5032882;28;20268;-79
2022/11/19 04:16:08;;;;;;;19.00;12.00;;;-5.70;99.90;;;;;;5034103;28;20584;-79
2022/11/19 04:18:34;;;;;;;18.20;11.40;;;-5.70;99.90;;;;;;5033276;28;20193;-79
2022/11/19 04:20:59;;;;;;;16.83;11.00;;;-5.70;99.90;;;;;;5033394;28;20209;-79
2022/11/19 04:23:25;;;;;;;17.63;11.53;;;-5.80;99.90;;;;;;5034638;28;20236;-79
2022/11/19 04:25:50;;;;;;;18.10;11.83;;;-5.80;99.90;;;;;;5034251;28;20179;-79
2022/11/19 04:28:16;;;;;;;19.50;12.23;;;-5.70;99.90;;;;;;5034299;28;20186;-79
2022/11/19 04:30:42;;;;;;;19.87;11.80;;;-5.80;99.90;;;;;;5033891;28;20179;-80
2022/11/19 04:33:08;;;;;;;19.80;12.27;;;-5.60;99.90;;;;;;5032842;28;20652;-79
2022/11/19 04:35:33;;;;;;;18.80;12.37;;;-5.70;99.90;;;;;;5033762;28;20262;-79
2022/11/19 04:37:59;;;;;;;18.57;11.83;;;-5.60;1.00;;;;;;5033905;28;20544;-79
2022/11/19 04:40:25;;;;;;;18.60;12.20;;;-5.60;1.00;;;;;;5032976;28;20593;-79
2022/11/19 04:42:50;;;;;;;19.17;11.83;;;-5.60;1.00;;;;;;5034514;28;20281;-79
2022/11/19 04:45:16;;;;;;;19.40;12.40;;;-5.70;1.00;;;;;;5034247;28;20213;-79
2022/11/19 04:47:41;;;;;;;19.13;12.20;;;-5.70;1.00;;;;;;5032847;28;20195;-79
2022/11/19 04:50:07;;;;;;;21.40;12.63;;;-5.70;1.00;;;;;;5033424;28;20175;-77
2022/11/19 04:52:33;;;;;;;20.07;11.50;;;-5.80;1.00;;;;;;5033856;28;20221;-79
2022/11/19 04:54:58;;;;;;;19.23;12.47;;;-5.80;1.00;;;;;;5032389;28;20255;-79
2022/11/19 04:57:24;;;;;;;17.70;12.10;;;-5.80;1.00;;;;;;5032489;28;20191;-79
2022/11/19 04:59:50;;;;;;;19.00;11.57;;;-5.90;1.00;;;;;;5033781;28;20183;-79
2022/11/19 05:02:15;;;;;;;16.33;11.40;;;-5.80;1.00;;;;;;5031748;28;20680;-80
2022/11/19 05:04:41;;;;;;;17.93;12.27;;;-5.80;1.00;;;;;;5033425;28;20171;-79
2022/11/19 05:07:06;;;;;;;20.07;12.07;;;-5.90;1.00;;;;;;5033824;28;20222;-79
2022/11/19 05:09:32;;;;;;;17.47;11.73;;;-6.00;99.90;;;;;;5034022;28;20178;-79
2022/11/19 05:11:57;;;;;;;20.53;12.10;;;-6.10;99.90;;;;;;5033686;28;20214;-79
2022/11/19 05:14:23;;;;;;;17.77;11.63;;;-6.10;99.90;;;;;;5034066;28;20179;-79
2022/11/19 05:16:48;;;;;;;18.13;12.03;;;-6.00;99.90;;;;;;5033638;28;20241;-79
2022/11/19 05:19:14;;;;;;;18.57;11.67;;;-6.00;99.90;;;;;;5034019;28;20531;-79
2022/11/19 05:21:40;;;;;;;18.73;11.40;;;-6.10;99.90;;;;;;5034214;28;20207;-79
2022/11/19 05:24:05;;;;;;;17.77;11.73;;;-6.10;99.90;;;;;;5034154;28;20187;-78
2022/11/19 05:26:31;;;;;;;17.50;11.57;;;-6.00;1.00;;;;;;5034570;28;20194;-80
2022/11/19 05:28:56;;;;;;;17.63;10.93;;;-6.10;1.00;;;;;;5034243;28;20171;-79
2022/11/19 05:31:22;;;;;;;16.17;10.67;;;-6.00;1.00;;;;;;5034525;28;20187;-79
2022/11/19 05:33:48;;;;;;;18.50;11.20;;;-6.00;1.00;;;;;;5033528;28;20183;-79
2022/11/19 05:36:13;;;;;;;19.07;11.47;;;-6.00;1.00;;;;;;5033976;28;20202;-79
2022/11/19 05:38:40;;;;;;;17.73;11.87;;;-5.90;1.00;;;;;;5033423;28;20187;-79
2022/11/19 05:41:05;;;;;;;17.90;11.43;;;-5.90;1.00;;;;;;5033727;28;20676;-79
2022/11/19 05:43:31;;;;;;;16.87;10.73;;;-5.90;1.00;;;;;;5033843;28;20254;-79
2022/11/19 05:46:00;;;;;;;17.67;11.87;;;-5.80;1.00;;;;;;5034002;28;20743;-79
2022/11/19 05:48:26;;;;;;;18.40;11.73;;;-5.80;1.00;;;;;;5032295;28;20672;-80
2022/11/19 05:50:52;;;;;;;16.63;11.53;;;-5.90;1.00;;;;;;5033821;28;20183;-79
2022/11/19 05:53:17;;;;;;;17.00;10.90;;;-5.70;1.00;;;;;;5032190;28;20635;-79
2022/11/19 05:55:43;;;;;;;18.47;12.20;;;-5.90;1.00;;;;;;5033408;28;20190;-79
2022/11/19 05:58:08;;;;;;;17.97;11.33;;;-5.90;1.00;;;;;;5033558;28;20187;-79
2022/11/19 06:00:34;;;;;;;16.93;11.30;;;-5.70;1.00;;;;;;5032230;28;20194;-79
2022/11/19 06:02:59;;;;;;;16.93;11.07;;;-5.70;1.00;;;;;;5032624;28;20334;-79
2022/11/19 06:05:25;;;;;;;18.10;10.87;;;-5.80;1.00;;;;;;5031966;28;20172;-79
2022/11/19 06:07:51;;;;;;;17.37;11.40;;;-5.80;1.00;;;;;;5033307;28;20678;-79
2022/11/19 06:10:16;;;;;;;18.13;11.23;;;-5.70;1.00;;;;;;5033478;28;20179;-78
2022/11/19 06:12:45;;;;;;;18.83;12.00;;;-5.70;1.00;;;;;;5034293;28;20241;-79
2022/11/19 06:15:11;;;;;;;16.90;11.63;;;-5.80;1.00;;;;;;5036902;28;20186;-79
2022/11/19 06:17:37;;;;;;;17.03;11.23;;;-5.80;1.00;;;;;;5034649;28;20210;-79
2022/11/19 06:20:03;;;;;;;16.73;10.70;;;-5.80;1.00;;;;;;5034431;28;20183;-79
2022/11/19 06:22:28;;;;;;;19.23;11.87;;;-5.90;1.00;;;;;;5036320;28;20171;-79
2022/11/19 06:24:54;;;;;;;17.40;10.80;;;-5.90;1.00;;;;;;5037396;28;20233;-79
2022/11/19 06:27:19;;;;;;;16.90;10.30;;;-5.80;1.00;;;;;;5036718;28;20193;-79
2022/11/19 06:29:45;;;;;;;16.30;10.80;;;-5.90;1.00;;;;;;5036342;28;20171;-79
2022/11/19 06:32:10;;;;;;;17.80;11.07;;;-5.90;1.00;;;;;;5037324;28;20823;-79
2022/11/19 06:34:36;;;;;;;16.07;10.80;;;-5.80;1.00;;;;;;5035843;28;20182;-79
2022/11/19 06:37:02;;;;;;;17.33;11.43;;;-5.80;1.00;;;;;;5034543;28;20199;-79
2022/11/19 06:39:27;;;;;;;17.90;11.03;;;-5.70;1.00;;;;;;5035632;28;20233;-78
2022/11/19 06:41:53;;;;;;;17.70;11.03;;;-5.70;1.00;;;;;;5036207;28;20253;-78
2022/11/19 06:44:18;;;;;;;16.80;11.20;;;-5.70;1.00;;;;;;5035532;28;20175;-79
2022/11/19 06:46:44;;;;;;;20.00;11.57;;;-5.60;1.00;;;;;;5034319;28;20546;-79
2022/11/19 06:49:10;;;;;;;16.23;10.47;;;-5.70;1.00;;;;;;5020214;28;20190;-78
2022/11/19 06:51:35;;;;;;;16.03;10.37;;;-5.80;1.00;;;;;;5016715;28;20182;-78
2022/11/19 06:54:01;;;;;;;16.17;9.83;;;-5.90;1.00;;;;;;5016003;28;20192;-79
2022/11/19 06:56:26;;;;;;;16.63;11.07;;;-5.80;1.00;;;;;;5014636;28;20207;-79
2022/11/19 06:58:57;;;;;;;17.90;10.87;;;-5.80;1.00;;;;;;5014469;28;20676;-79
2022/11/19 07:01:22;;;;;;;16.53;9.90;;;-5.80;1.00;;;;;;5013997;28;20253;-78
2022/11/19 07:03:48;;;;;;;16.47;10.70;;;-5.70;1.00;;;;;;4996805;28;20660;-79
2022/11/19 07:06:13;;;;;;;16.93;10.77;;;-5.80;1.00;;;;;;4995011;28;20196;-79
2022/11/19 07:08:39;;;;;;;17.90;10.87;;;-5.70;1.00;;;;;;5016534;28;20187;-79
2022/11/19 07:11:24;;;;;;;15.37;9.90;;;-5.80;1.00;;;;;;5012971;28;20179;-79
2022/11/19 07:13:56;;;;;;;17.00;10.23;;;-5.60;1.00;;;;;;5015543;28;20190;-79
2022/11/19 07:16:32;;;;;;;16.67;11.00;;;-5.60;1.00;;;;;;5010346;28;20218;-79
2022/11/19 07:19:00;;;;;;;17.80;11.37;;;-5.70;1.00;;;;;;4996388;28;20211;-79
2022/11/19 07:21:27;;;;;;;17.17;10.37;;;-5.60;1.00;;;;;;5002411;28;20374;-79
2022/11/19 07:23:53;;;;;;;17.80;11.37;;;-5.50;1.00;;;;;;4993105;28;20176;-79
2022/11/19 07:26:19;;;;;;;19.70;11.13;;;-5.40;1.00;;;;;;4994804;28;20275;-78
2022/11/19 07:28:45;;;;;;;18.13;11.57;;;-5.40;1.00;;;;;;4994780;28;20204;-79
2022/11/19 07:31:10;;;;;;;17.03;11.17;;;-5.10;1.00;;;;;;4993328;28;20570;-79
2022/11/19 07:33:38;;;;;;;16.53;10.77;;;-5.40;1.00;;;;;;4994892;28;20180;-79
2022/11/19 07:36:05;;;;;;;14.73;10.40;;;-5.40;1.00;;;;;;4994974;28;20200;-79
2022/11/19 07:38:31;;;;;;;17.37;10.80;;;-5.50;1.00;;;;;;4998218;28;20222;-78
2022/11/19 07:40:56;;;;;;;16.50;11.53;;;-5.40;1.00;;;;;;5012636;28;20212;-78
2022/11/19 07:43:22;;;;;;;19.73;11.83;;;-5.30;1.00;;;;;;5011378;28;20713;-78
2022/11/19 07:45:48;;;;;;;18.73;11.97;;;-5.20;1.00;;;;;;5012881;28;20649;-78
2022/11/19 07:48:14;;;;;;;16.80;11.13;;;-5.10;1.00;;;;;;5013279;28;20206;-78
2022/11/19 07:50:40;;;;;;;18.93;11.67;;;-5.20;1.00;;;;;;5012751;28;20625;-78
2022/11/19 07:53:07;;;;;;;18.40;11.33;;;-5.20;1.00;;;;;;5013860;28;20274;-78
2022/11/19 07:55:33;;;;;;;17.10;11.30;;;-5.00;1.00;;;;;;5012249;28;20301;-78
2022/11/19 07:57:59;;;;;;;17.97;11.90;;;-5.20;1.00;;;;;;5013277;28;20188;-79
2022/11/19 08:00:25;;;;;;;19.40;11.90;;;-5.10;1.00;;;;;;5013592;28;20211;-78
2022/11/19 08:02:52;;;;;;;17.93;11.77;;;-5.10;1.00;;;;;;5014791;28;20565;-78
2022/11/19 08:05:17;;;;;;;17.00;11.13;;;-5.10;1.00;;;;;;5014433;28;20206;-78
2022/11/19 08:07:43;;;;;;;16.43;11.83;;;-5.10;1.00;;;;;;5014419;28;20194;-78
2022/11/19 08:10:10;;;;;;;18.30;11.80;;;-5.00;1.00;;;;;;5013242;28;20179;-78
2022/11/19 08:12:36;;;;;;;21.70;13.70;;;-5.00;1.00;;;;;;5013973;28;20176;-79
2022/11/19 08:15:01;;;;;;;32.83;18.13;;;-4.80;1.00;;;;;;5012670;28;20172;-78
2022/11/19 08:20:11;;;;;;;27.70;15.17;;;-4.80;1.00;;;;;;5014984;28;20719;-79
2022/11/19 08:22:39;;;;;;;27.50;15.87;;;-4.60;1.00;;;;;;5015527;28;20168;-77
2022/11/19 08:25:05;;;;;;;26.47;15.00;;;-4.60;1.00;;;;;;5014760;28;20180;-79
2022/11/19 08:27:31;;;;;;;21.77;13.70;;;-4.50;1.00;;;;;;5014391;28;20249;-79
2022/11/19 08:29:57;;;;;;;19.63;11.93;;;-4.50;1.00;;;;;;5016045;28;20195;-79
2022/11/19 08:32:23;;;;;;;19.97;12.73;;;-4.40;1.00;;;;;;5014429;28;20186;-79
2022/11/19 08:34:48;;;;;;;21.40;13.63;;;-4.20;1.00;;;;;;5015533;28;20180;-79
2022/11/19 08:37:14;;;;;;;23.73;16.07;;;-4.20;99.90;;;;;;5014636;28;20207;-79
2022/11/19 08:39:39;;;;;;;21.43;14.63;;;-4.20;99.90;;;;;;5015482;28;20199;-79
2022/11/19 08:44:54;;;;;;;33.60;20.40;;;-4.00;99.90;;;;;;5016458;28;20665;-79
2022/11/19 08:47:20;;;;;;;26.93;16.60;;;-4.00;99.90;;;;;;5014317;28;20187;-78
2022/11/19 08:49:46;;;;;;;23.93;16.50;;;-3.90;99.90;;;;;;5016665;28;20175;-79
2022/11/19 08:52:13;;;;;;;23.80;15.43;;;-4.00;99.90;;;;;;5015959;28;20191;-79
2022/11/19 08:54:38;;;;;;;22.37;15.70;;;-3.90;99.90;;;;;;5016438;28;20286;-78
2022/11/19 08:57:04;;;;;;;27.07;16.50;;;-3.90;99.90;;;;;;5013582;28;20227;-79
2022/11/19 08:59:30;;;;;;;23.60;16.13;;;-3.80;99.90;;;;;;5014934;28;20179;-79
2022/11/19 09:01:55;;;;;;;22.10;14.53;;;-3.70;1.00;;;;;;5015836;28;20305;-79
2022/11/19 09:04:21;;;;;;;21.27;15.07;;;-3.60;1.00;;;;;;5012069;28;20199;-78
2022/11/19 09:06:46;;;;;;;19.60;13.60;;;-3.50;99.90;;;;;;5012057;28;20202;-77
2022/11/19 09:09:12;;;;;;;18.23;12.67;;;-3.30;99.90;;;;;;5013077;28;20171;-79
2022/11/19 09:11:37;;;;;;;19.37;12.90;;;-3.00;99.90;;;;;;5012418;28;20602;-77
2022/11/19 09:14:03;;;;;;;19.57;14.33;;;-2.90;99.90;;;;;;5012932;28;20179;-77
2022/11/19 09:16:29;;;;;;;19.13;13.00;;;-2.90;99.90;;;;;;5013235;28;20192;-78
2022/11/19 09:18:54;;;;;;;19.10;13.47;;;-2.70;99.90;;;;;;5014102;28;20180;-79
2022/11/19 09:21:20;;;;;;;27.83;17.87;;;-2.70;99.90;;;;;;5014413;28;20195;-77
2022/11/19 09:23:46;;;;;;;22.60;16.80;;;-2.60;99.90;;;;;;5011601;28;20226;-77
2022/11/19 09:26:17;;;;;;;19.43;13.93;;;-2.50;99.90;;;;;;5013141;28;20194;-78
2022/11/19 09:28:43;;;;;;;13.67;10.57;;;-2.60;99.90;;;;;;5013694;28;20171;-77
2022/11/19 09:31:13;;;;;;;14.80;11.30;;;-2.60;99.90;;;;;;5011351;28;20176;-77
2022/11/19 09:33:41;;;;;;;16.13;11.80;;;-2.60;99.90;;;;;;5011596;28;20376;-80
2022/11/19 09:36:09;;;;;;;16.47;11.80;;;-2.60;99.90;;;;;;5012244;28;20282;-79
2022/11/19 09:38:34;;;;;;;16.00;11.63;;;-2.50;99.90;;;;;;5011666;28;20180;-80
2022/11/19 09:41:31;;;;;;;15.43;11.00;;;-2.40;99.90;;;;;;5013628;28;20203;-77
2022/11/19 09:44:11;;;;;;;15.70;10.40;;;-2.40;99.90;;;;;;5012822;28;20527;-78
2022/11/19 09:47:02;;;;;;;12.83;10.00;;;-2.30;99.90;;;;;;5014561;28;20187;-78
2022/11/19 09:49:52;;;;;;;14.50;11.33;;;-2.20;99.90;;;;;;5016318;28;20178;-76
2022/11/19 09:52:21;;;;;;;13.13;10.07;;;-1.90;99.90;;;;;;5007043;28;20199;-80
2022/11/19 09:54:53;;;;;;;13.03;9.53;;;-2.10;99.90;;;;;;5016380;28;20172;-79
2022/11/19 09:57:42;;;;;;;12.97;9.13;;;-1.80;99.90;;;;;;5017095;28;20198;-76
2022/11/19 10:00:08;;;;;;;11.97;8.80;;;-1.80;99.90;;;;;;5016751;28;20243;-77
2022/11/19 10:02:34;;;;;;;12.13;9.13;;;-1.80;99.90;;;;;;5015241;28;20634;-77
2022/11/19 10:05:00;;;;;;;12.67;9.17;;;-1.70;99.90;;;;;;5014108;28;20183;-77
2022/11/19 10:07:43;;;;;;;12.30;9.50;;;-1.40;99.90;;;;;;5015230;28;20200;-77
2022/11/19 10:10:35;;;;;;;12.20;9.57;;;-1.60;99.90;;;;;;5016100;28;20172;-77
2022/11/19 10:13:13;;;;;;;11.10;9.20;;;-1.80;99.90;;;;;;5013423;28;20180;-77
2022/11/19 10:16:01;;;;;;;11.37;8.67;;;-1.50;99.90;;;;;;5015182;28;20589;-80
2022/11/19 10:18:54;;;;;;;11.60;8.93;;;-1.40;99.90;;;;;;5014148;28;20176;-79
2022/11/19 10:21:37;;;;;;;12.27;9.40;;;-1.40;99.90;;;;;;5013998;28;20188;-80
2022/11/19 10:24:17;;;;;;;13.33;10.13;;;-1.30;99.90;;;;;;5017336;28;20179;-79
2022/11/19 10:27:11;;;;;;;14.13;10.17;;;-1.30;96.00;;;;;;5017494;28;20206;-77
2022/11/19 10:29:39;;;;;;;13.73;9.23;;;-1.10;99.90;;;;;;5021623;28;20182;-79
2022/11/19 10:32:29;;;;;;;11.47;8.90;;;-1.10;99.90;;;;;;5018027;28;20194;-79
2022/11/19 10:35:00;;;;;;;11.00;8.23;;;-1.00;83.40;;;;;;5019383;28;20637;-80
2022/11/19 10:37:32;;;;;;;8.20;7.00;;;-1.00;99.90;;;;;;5019249;28;20249;-79
2022/11/19 10:40:06;;;;;;;9.63;7.53;;;-0.90;99.90;;;;;;5022216;28;20211;-77
2022/11/19 10:42:39;;;;;;;10.10;7.43;;;-0.80;99.90;;;;;;5023126;28;20477;-79
2022/11/19 10:45:17;;;;;;;8.07;6.90;;;-0.90;99.90;;;;;;5022414;28;20184;-79
2022/11/19 10:48:04;;;;;;;9.27;6.90;;;-0.70;41.10;;;;;;5023384;28;20274;-78
2022/11/19 10:50:30;;;;;;;9.63;7.43;;;-0.50;34.20;;;;;;5041170;28;20179;-78
2022/11/19 10:53:14;;;;;;;9.07;7.10;;;-0.60;99.30;;;;;;5023703;28;20201;-79
2022/11/19 10:55:55;;;;;;;8.77;7.07;;;-0.60;32.00;;;;;;5024416;28;20207;-79
2022/11/19 10:58:27;;;;;;;9.97;7.03;;;-0.60;96.50;;;;;;5024377;28;20175;-80
2022/11/19 11:00:55;;;;;;;9.07;7.43;;;-0.70;91.20;;;;;;5022119;28;20214;-77
2022/11/19 11:03:27;;;;;;;9.83;6.97;;;-0.70;99.90;;;;;;5024492;28;20237;-80
2022/11/19 11:05:56;;;;;;;8.57;6.83;;;-0.60;16.70;;;;;;5016133;28;20199;-80
2022/11/19 11:08:22;;;;;;;7.87;6.33;;;-0.60;81.60;;;;;;5025109;28;20168;-80
2022/11/19 11:10:50;;;;;;;9.23;6.47;;;-0.50;74.80;;;;;;5023579;28;20182;-77
2022/11/19 11:16:08;;;;;;;8.90;7.13;;;-0.40;4.80;;;;;;5022011;28;20305;-79
2022/11/19 11:18:39;;;;;;;8.27;6.67;;;-0.50;4.50;;;;;;5025307;28;20175;-79
2022/11/19 11:21:06;;;;;;;9.20;6.60;;;-0.20;63.40;;;;;;5025625;28;20195;-79
2022/11/19 11:23:33;;;;;;;8.37;6.30;;;-0.30;67.30;;;;;;5024590;28;20671;-76
2022/11/19 11:26:08;;;;;;;7.77;6.80;;;-0.20;53.70;;;;;;5027090;28;20279;-79
2022/11/19 11:28:34;;;;;;;9.43;7.00;;;-0.20;53.50;;;;;;5018393;28;20190;-80
2022/11/19 11:31:08;;;;;;;9.83;7.47;;;-0.20;50.40;;;;;;5017465;28;20638;-80
2022/11/19 11:33:41;;;;;;;8.93;7.30;;;-0.10;60.10;;;;;;5015501;28;20199;-80
2022/11/19 11:36:14;;;;;;;11.60;8.80;;;0.00;74.50;;;;;;5016098;28;20191;-79
2022/11/19 11:38:46;;;;;;;10.87;8.30;;;-0.10;54.20;;;;;;5014471;28;20183;-80
2022/11/19 11:41:17;;;;;;;10.57;8.13;;;-0.10;1.00;;;;;;5016847;28;20729;-80
2022/11/19 11:44:06;;;;;;;14.07;10.57;;;0.00;49.00;;;;;;5016440;28;20172;-78
2022/11/19 11:46:43;;;;;;;13.43;9.37;;;0.10;57.90;;;;;;5016682;28;20199;-78
2022/11/19 11:49:36;;;;;;;12.83;8.60;;;0.20;59.90;;;;;;5016529;28;20194;-78
2022/11/19 11:52:12;;;;;;;10.27;7.30;;;0.20;1.00;;;;;;5013315;28;20219;-80
2022/11/19 11:54:54;;;;;;;11.70;7.90;;;0.10;49.20;;;;;;5015986;28;20179;-79
2022/11/19 11:57:22;;;;;;;8.67;7.00;;;0.10;51.00;;;;;;5016178;28;20199;-79
2022/11/19 11:59:48;;;;;;;7.47;6.67;;;0.10;48.00;;;;;;5016224;28;20214;-79
2022/11/19 12:02:21;;;;;;;7.23;6.30;;;0.20;36.70;;;;;;5016764;28;20273;-79
2022/11/19 12:04:49;;;;;;;8.57;6.87;;;0.20;29.70;;;;;;5015648;28;20168;-78
2022/11/19 12:07:38;;;;;;;7.73;6.23;;;0.10;33.90;;;;;;5017655;28;20187;-79
2022/11/19 12:10:25;;;;;;;6.93;5.70;;;0.10;1.00;;;;;;5016959;28;20163;-80
2022/11/19 12:13:12;;;;;;;10.03;7.60;;;0.10;1.00;;;;;;5015836;28;20183;-79
2022/11/19 12:15:38;;;;;;;11.67;7.50;;;0.00;1.00;;;;;;5028301;23;20226;-79
2022/11/19 12:18:16;;;;;;;5.67;4.73;;;0.00;22.50;;;;;;5017036;28;20748;-78
2022/11/19 12:20:50;;;;;;;4.03;3.57;;;0.20;1.00;;;;;;5031962;28;20636;-79
2022/11/19 12:23:37;;;;;;;5.47;3.67;;;0.20;1.00;;;;;;5015873;28;20203;-79
2022/11/19 12:26:21;;;;;;;4.17;3.33;;;0.20;1.00;;;;;;5017126;28;20200;-78
2022/11/19 12:28:58;;;;;;;4.27;3.63;;;0.20;22.30;;;;;;5017167;28;20179;-79
2022/11/19 12:32:03;;;;;;;4.60;3.33;;;0.20;1.00;;;;;;5018028;28;20167;-79
2022/11/19 12:34:37;;;;;;;4.23;3.83;;;0.20;1.00;;;;;;5017907;28;20197;-79
2022/11/19 12:37:22;;;;;;;4.40;3.53;;;0.20;1.00;;;;;;5018935;28;20656;-79
2022/11/19 12:40:10;;;;;;;6.27;3.77;;;0.20;22.10;;;;;;5017242;28;20191;-77
2022/11/19 12:43:00;;;;;;;4.37;3.33;;;0.20;1.00;;;;;;5017954;28;20208;-79
2022/11/19 12:45:53;;;;;;;5.33;3.73;;;0.30;1.00;;;;;;5017444;28;20202;-79
2022/11/19 12:48:43;;;;;;;4.97;3.63;;;0.40;1.00;;;;;;5016677;28;20183;-79
2022/11/19 12:51:28;;;;;;;4.53;3.20;;;0.60;11.60;;;;;;5015700;28;20660;-79
2022/11/19 12:54:15;;;;;;;5.00;3.53;;;0.60;8.60;;;;;;5015625;28;20599;-79
2022/11/19 12:56:51;;;;;;;5.00;3.63;;;0.70;1.00;;;;;;5017260;28;20176;-79
2022/11/19 12:59:40;;;;;;;4.20;3.40;;;0.90;1.00;;;;;;5015148;28;20179;-78
2022/11/19 13:02:20;;;;;;;6.00;4.07;;;1.00;1.00;;;;;;5014739;28;20577;-79
2022/11/19 13:04:56;;;;;;;8.53;5.80;;;1.10;6.70;;;;;;5016896;28;20199;-79
2022/11/19 13:07:28;;;;;;;4.67;3.30;;;1.10;1.00;;;;;;5017237;28;20176;-78
2022/11/19 13:10:11;;;;;;;4.00;2.90;;;1.10;1.00;;;;;;5016467;28;20667;-79
2022/11/19 13:12:46;;;;;;;9.20;4.80;;;1.00;1.00;;;;;;5017050;28;20649;-79
2022/11/19 13:15:23;;;;;;;11.07;6.27;;;1.10;1.00;;;;;;5016076;28;20226;-79
2022/11/19 13:17:58;;;;;;;6.63;3.93;;;1.00;1.00;;;;;;5016845;28;20175;-78